Time;durP1;ratioP1;P1;durP2;ratioP2;P2;SDS_P1;SDS_P2;PMS_P1;PMS_P2;Temp;Humidity;BMP_temperature;BMP_pressure;BME280_temperature;BME280_humidity;BME280_pressure;Samples;Min_cycle;Max_cycle;Signal;HPM_P1;HPM_P2
2024/03/20 00:00:06;;;;;;;37.13;19.83;;;9.50;99.90;;;;;;5067740;28;20475;-57
2024/03/20 00:02:31;;;;;;;30.67;19.27;;;9.50;99.90;;;;;;5061555;28;20029;-56
2024/03/20 00:04:57;;;;;;;31.08;18.63;;;9.50;99.90;;;;;;5049135;28;20033;-50
2024/03/20 00:07:23;;;;;;;34.88;17.85;;;9.50;99.90;;;;;;5048610;28;20141;-54
2024/03/20 00:09:48;;;;;;;31.85;18.52;;;9.50;99.90;;;;;;5048268;28;20112;-52
2024/03/20 00:12:14;;;;;;;31.35;18.88;;;9.50;99.90;;;;;;5048850;28;20052;-51
2024/03/20 00:14:39;;;;;;;33.67;17.73;;;9.50;99.90;;;;;;5048591;28;20029;-52
2024/03/20 00:17:07;;;;;;;31.10;19.75;;;9.50;99.90;;;;;;5049097;28;20029;-47
2024/03/20 00:19:33;;;;;;;30.92;17.90;;;9.50;99.90;;;;;;5047232;28;20025;-51
2024/03/20 00:21:59;;;;;;;28.50;16.88;;;9.50;99.90;;;;;;5048013;28;20025;-47
2024/03/20 00:24:24;;;;;;;24.80;16.15;;;9.50;99.90;;;;;;5048409;28;20039;-54
2024/03/20 00:26:50;;;;;;;24.90;14.25;;;9.50;99.90;;;;;;5048777;28;20104;-51
2024/03/20 00:29:16;;;;;;;24.30;14.98;;;9.50;99.90;;;;;;5048852;28;20102;-49
2024/03/20 00:31:42;;;;;;;19.95;13.82;;;9.40;99.90;;;;;;5048387;28;20056;-52
2024/03/20 00:34:08;;;;;;;81.82;51.25;;;9.40;99.90;;;;;;5048533;28;20475;-49
2024/03/20 00:36:34;;;;;;;47.70;28.15;;;9.40;99.90;;;;;;5048818;28;20032;-55
2024/03/20 00:38:59;;;;;;;106.72;58.90;;;9.40;99.90;;;;;;5055272;28;20033;-51
2024/03/20 00:41:25;;;;;;;32.67;20.70;;;9.40;99.90;;;;;;5068019;28;20103;-48
2024/03/20 00:43:50;;;;;;;26.35;16.55;;;9.40;99.90;;;;;;5066734;28;20124;-51
2024/03/20 00:46:16;;;;;;;28.00;16.27;;;9.50;99.90;;;;;;5070064;28;20064;-51
2024/03/20 00:48:41;;;;;;;26.75;16.17;;;9.40;99.90;;;;;;5068290;28;20028;-53
2024/03/20 00:51:07;;;;;;;27.05;15.50;;;9.40;99.90;;;;;;5068069;28;20062;-48
2024/03/20 00:53:33;;;;;;;25.00;15.85;;;9.40;99.90;;;;;;5066662;28;20032;-45
2024/03/20 00:55:58;;;;;;;25.85;15.95;;;9.40;99.90;;;;;;5056976;28;20025;-46
2024/03/20 00:58:24;;;;;;;22.52;15.13;;;9.40;99.90;;;;;;5068291;28;20037;-52
2024/03/20 01:00:49;;;;;;;28.55;14.98;;;9.40;99.90;;;;;;5056324;28;20029;-52
2024/03/20 01:03:15;;;;;;;31.38;18.63;;;9.30;99.90;;;;;;5051053;28;20017;-48
2024/03/20 01:05:41;;;;;;;24.63;15.68;;;9.40;99.90;;;;;;5051166;28;20029;-52
2024/03/20 01:08:07;;;;;;;30.13;15.82;;;9.30;99.90;;;;;;5050017;28;20028;-57
2024/03/20 01:10:32;;;;;;;26.27;15.55;;;9.30;99.90;;;;;;5053340;28;20487;-53
2024/03/20 01:12:58;;;;;;;26.38;16.80;;;9.30;99.90;;;;;;5054064;23;20057;-64
2024/03/20 01:15:24;;;;;;;30.38;16.25;;;9.20;99.90;;;;;;5031005;28;20120;-64
2024/03/20 01:17:49;;;;;;;27.75;15.82;;;9.20;99.90;;;;;;5029792;28;20018;-65
2024/03/20 01:20:15;;;;;;;28.60;15.88;;;9.20;99.90;;;;;;5029537;28;20025;-64
2024/03/20 01:22:40;;;;;;;28.38;15.23;;;9.20;99.90;;;;;;5029364;28;20390;-65
2024/03/20 01:25:07;;;;;;;24.00;15.05;;;9.20;99.90;;;;;;5031022;28;20025;-65
2024/03/20 01:27:34;;;;;;;27.23;16.25;;;9.20;99.90;;;;;;5030666;28;20033;-65
2024/03/20 01:29:59;;;;;;;22.75;14.40;;;9.20;99.90;;;;;;5030703;28;20053;-65
2024/03/20 01:32:25;;;;;;;23.67;14.65;;;9.10;99.90;;;;;;5032609;28;20072;-66
2024/03/20 01:34:51;;;;;;;24.85;14.50;;;9.10;99.90;;;;;;5034623;28;20034;-64
2024/03/20 01:37:16;;;;;;;19.50;12.93;;;9.10;99.90;;;;;;5033116;28;20021;-64
2024/03/20 01:39:42;;;;;;;22.58;14.45;;;9.00;99.90;;;;;;5034336;28;20030;-65
2024/03/20 01:42:08;;;;;;;24.27;14.80;;;9.10;99.90;;;;;;5033103;28;20075;-65
2024/03/20 01:44:33;;;;;;;20.52;13.35;;;9.00;99.90;;;;;;5033057;28;20112;-65
2024/03/20 01:46:59;;;;;;;20.30;13.88;;;9.00;99.90;;;;;;5034091;28;20024;-65
2024/03/20 01:49:25;;;;;;;20.27;13.85;;;9.00;99.90;;;;;;5034250;28;20109;-65
2024/03/20 01:51:51;;;;;;;22.42;13.27;;;9.00;99.90;;;;;;5032567;28;20047;-65
2024/03/20 01:54:18;;;;;;;18.92;12.82;;;9.00;99.90;;;;;;5034286;28;20501;-64
2024/03/20 01:56:44;;;;;;;20.98;13.75;;;9.00;99.90;;;;;;5032773;28;20043;-64
2024/03/20 01:59:10;;;;;;;22.48;14.57;;;9.00;99.90;;;;;;5034035;28;20063;-66
2024/03/20 02:01:35;;;;;;;20.00;12.73;;;8.90;99.90;;;;;;5033770;28;20096;-65
2024/03/20 02:04:02;;;;;;;21.50;13.13;;;8.90;99.90;;;;;;5034201;28;20049;-65
2024/03/20 02:06:28;;;;;;;20.95;13.15;;;8.80;99.90;;;;;;5033782;28;20025;-65
2024/03/20 02:08:56;;;;;;;22.17;14.00;;;8.70;99.90;;;;;;5033951;28;20416;-64
2024/03/20 02:11:24;;;;;;;25.73;13.73;;;8.60;99.90;;;;;;5033876;28;20725;-65
2024/03/20 02:13:52;;;;;;;18.48;12.38;;;8.60;99.90;;;;;;5032484;28;20037;-65
2024/03/20 02:16:19;;;;;;;18.65;12.82;;;8.60;99.90;;;;;;5032217;28;20116;-65
2024/03/20 02:18:46;;;;;;;21.73;11.85;;;8.50;99.90;;;;;;5033810;28;20480;-65
2024/03/20 02:21:13;;;;;;;16.70;11.25;;;8.40;99.90;;;;;;5033414;28;20026;-65
2024/03/20 02:23:39;;;;;;;21.98;11.45;;;8.40;99.90;;;;;;5032347;28;20397;-67
2024/03/20 02:26:06;;;;;;;18.33;12.02;;;8.30;99.90;;;;;;5033781;28;20020;-65
2024/03/20 02:28:33;;;;;;;19.55;12.43;;;8.30;99.90;;;;;;5033720;28;20021;-65
2024/03/20 02:31:00;;;;;;;19.65;12.20;;;8.30;99.90;;;;;;5033602;28;20022;-64
2024/03/20 02:33:25;;;;;;;17.10;11.68;;;8.20;99.90;;;;;;5033299;28;20096;-65
2024/03/20 02:35:55;;;;;;;20.67;13.38;;;8.20;99.90;;;;;;5033489;28;20425;-65
2024/03/20 02:38:22;;;;;;;19.63;12.23;;;8.30;99.90;;;;;;5033359;28;20392;-65
2024/03/20 02:40:48;;;;;;;18.35;12.18;;;8.30;99.90;;;;;;5033171;28;20200;-65
2024/03/20 02:43:14;;;;;;;17.65;12.02;;;8.30;99.90;;;;;;5032667;28;20021;-65
2024/03/20 02:45:39;;;;;;;18.02;11.63;;;8.30;99.90;;;;;;5033028;28;20084;-65
2024/03/20 02:48:05;;;;;;;21.17;12.68;;;8.30;99.90;;;;;;5033083;28;20036;-65
2024/03/20 02:50:31;;;;;;;21.77;11.38;;;8.30;99.90;;;;;;5032925;28;20036;-65
2024/03/20 02:53:02;;;;;;;17.02;11.82;;;8.30;99.90;;;;;;5032978;28;20083;-65
2024/03/20 02:55:28;;;;;;;17.20;11.73;;;8.30;99.90;;;;;;5033504;28;20385;-64
2024/03/20 02:57:53;;;;;;;16.55;11.45;;;8.30;99.90;;;;;;5033029;28;20052;-65
2024/03/20 03:00:19;;;;;;;16.52;11.43;;;8.30;99.90;;;;;;5032807;28;20474;-66
2024/03/20 03:02:44;;;;;;;15.18;11.50;;;8.40;99.90;;;;;;5032919;28;20033;-65
2024/03/20 03:05:11;;;;;;;16.45;11.52;;;8.40;99.90;;;;;;5033234;28;20064;-65
2024/03/20 03:07:36;;;;;;;14.38;11.00;;;8.40;99.90;;;;;;5032467;28;20029;-66
2024/03/20 03:10:05;;;;;;;18.60;10.88;;;8.40;99.90;;;;;;5031187;28;20028;-65
2024/03/20 03:12:31;;;;;;;18.55;11.05;;;8.40;99.90;;;;;;5032426;28;20111;-66
2024/03/20 03:14:56;;;;;;;18.25;11.60;;;8.40;99.90;;;;;;5032688;28;20029;-66
2024/03/20 03:17:22;;;;;;;23.92;11.85;;;8.30;99.90;;;;;;5031271;28;20413;-65
2024/03/20 03:19:47;;;;;;;18.77;11.95;;;8.30;99.90;;;;;;5031024;28;20056;-65
2024/03/20 03:22:13;;;;;;;17.45;11.75;;;8.40;99.90;;;;;;5032377;28;20029;-65
2024/03/20 03:24:38;;;;;;;17.63;11.25;;;8.30;99.90;;;;;;5032432;28;20053;-65
2024/03/20 03:27:04;;;;;;;22.58;12.10;;;8.30;99.90;;;;;;5032300;28;20037;-65
2024/03/20 03:29:30;;;;;;;17.85;11.48;;;8.20;99.90;;;;;;5031074;28;20028;-64
2024/03/20 03:31:55;;;;;;;20.25;11.77;;;8.20;99.90;;;;;;5032159;28;20021;-65
2024/03/20 03:34:21;;;;;;;17.20;10.55;;;8.20;99.90;;;;;;5032723;28;20484;-65
2024/03/20 03:36:46;;;;;;;16.70;11.45;;;8.10;99.90;;;;;;5032312;28;20061;-66
2024/03/20 03:39:12;;;;;;;16.60;11.25;;;8.00;99.90;;;;;;5031122;28;20025;-65
2024/03/20 03:41:37;;;;;;;21.10;12.93;;;7.90;99.90;;;;;;5032010;28;20081;-65
2024/03/20 03:44:03;;;;;;;15.73;11.18;;;7.90;99.90;;;;;;5032221;28;20429;-65
2024/03/20 03:46:29;;;;;;;16.73;11.27;;;7.90;99.90;;;;;;5032055;28;20021;-65
2024/03/20 03:48:55;;;;;;;20.58;12.07;;;7.80;99.90;;;;;;5032134;28;20037;-64
2024/03/20 03:51:20;;;;;;;18.55;11.30;;;7.80;99.90;;;;;;5030571;28;20025;-65
2024/03/20 03:53:46;;;;;;;22.83;13.50;;;7.80;99.90;;;;;;5030557;28;20505;-65
2024/03/20 03:56:11;;;;;;;23.23;12.15;;;7.70;99.90;;;;;;5029769;28;20099;-65
2024/03/20 03:58:37;;;;;;;21.13;11.55;;;7.70;99.90;;;;;;5030671;28;20487;-65
2024/03/20 04:01:02;;;;;;;18.02;12.00;;;7.60;99.90;;;;;;5031692;28;20021;-65
2024/03/20 04:03:29;;;;;;;20.33;11.23;;;7.60;99.90;;;;;;5031829;28;20128;-65
2024/03/20 04:05:59;;;;;;;18.15;12.07;;;7.60;99.90;;;;;;5031490;28;20021;-65
2024/03/20 04:08:24;;;;;;;15.63;11.00;;;7.50;99.90;;;;;;5032755;28;20500;-65
2024/03/20 04:10:50;;;;;;;17.38;11.93;;;7.50;99.90;;;;;;5031886;28;20035;-65
2024/03/20 04:13:15;;;;;;;20.10;12.52;;;7.50;99.90;;;;;;5030363;28;20033;-65
2024/03/20 04:15:43;;;;;;;15.60;11.25;;;7.40;99.90;;;;;;5030249;28;20052;-65
2024/03/20 04:18:08;;;;;;;19.58;12.88;;;7.50;99.90;;;;;;5030308;28;20112;-65
2024/03/20 04:20:34;;;;;;;17.83;12.00;;;7.40;99.90;;;;;;5031605;28;20064;-65
2024/03/20 04:23:01;;;;;;;19.15;11.80;;;7.40;99.90;;;;;;5031564;28;20396;-65
2024/03/20 04:25:28;;;;;;;19.02;11.57;;;7.50;99.90;;;;;;5031722;28;20025;-72
2024/03/20 04:27:55;;;;;;;23.60;13.27;;;7.40;99.90;;;;;;5031400;28;20083;-65
2024/03/20 04:30:21;;;;;;;19.50;12.27;;;7.50;99.90;;;;;;5031702;28;20504;-65
2024/03/20 04:32:47;;;;;;;19.83;12.10;;;7.50;99.90;;;;;;5031271;28;20041;-65
2024/03/20 04:35:13;;;;;;;15.02;11.15;;;7.40;99.90;;;;;;5031615;28;20021;-64
2024/03/20 04:37:39;;;;;;;19.83;13.15;;;7.50;99.90;;;;;;5031534;28;20025;-65
2024/03/20 04:40:06;;;;;;;16.23;11.75;;;7.50;99.90;;;;;;5031247;28;20025;-64
2024/03/20 04:42:33;;;;;;;18.45;12.02;;;7.40;99.90;;;;;;5031163;28;20063;-65
2024/03/20 04:44:59;;;;;;;22.65;13.77;;;7.50;99.90;;;;;;5030014;28;20032;-65
2024/03/20 04:47:25;;;;;;;19.83;13.75;;;7.50;99.90;;;;;;5031775;28;20489;-65
2024/03/20 04:49:51;;;;;;;16.60;11.88;;;7.50;99.90;;;;;;5030967;28;20033;-65
2024/03/20 04:52:16;;;;;;;17.15;11.88;;;7.50;99.90;;;;;;5029832;28;20029;-65
2024/03/20 04:54:42;;;;;;;25.00;12.95;;;7.50;99.90;;;;;;5029986;28;20052;-65
2024/03/20 04:57:07;;;;;;;20.83;13.52;;;7.50;99.90;;;;;;5031189;28;20036;-65
2024/03/20 04:59:33;;;;;;;33.53;13.10;;;7.50;99.90;;;;;;5031057;28;20022;-65
2024/03/20 05:01:58;;;;;;;19.50;10.80;;;7.50;99.90;;;;;;5029754;28;20445;-64
2024/03/20 05:04:24;;;;;;;16.88;10.07;;;7.40;99.90;;;;;;5031372;28;20048;-65
2024/03/20 05:06:49;;;;;;;14.13;10.20;;;7.40;99.90;;;;;;5031640;28;20121;-64
2024/03/20 05:09:15;;;;;;;15.18;9.73;;;7.30;99.90;;;;;;5034983;28;20455;-65
2024/03/20 05:11:40;;;;;;;13.32;9.10;;;7.30;99.90;;;;;;5033229;28;20497;-65
2024/03/20 05:14:06;;;;;;;12.98;10.20;;;7.30;99.90;;;;;;5035136;28;20037;-65
2024/03/20 05:16:31;;;;;;;18.95;10.52;;;7.30;99.90;;;;;;5034839;28;20025;-65
2024/03/20 05:18:57;;;;;;;21.40;11.40;;;7.40;99.90;;;;;;5034789;28;20021;-65
2024/03/20 05:21:22;;;;;;;13.60;10.90;;;7.30;99.90;;;;;;5033314;28;20051;-65
2024/03/20 05:23:48;;;;;;;18.10;12.60;;;7.40;99.90;;;;;;5033516;28;20370;-65
2024/03/20 05:26:13;;;;;;;17.92;11.48;;;7.40;99.90;;;;;;5033280;28;20021;-65
2024/03/20 05:28:40;;;;;;;21.27;12.50;;;7.40;99.90;;;;;;5034904;28;20061;-66
2024/03/20 05:31:05;;;;;;;19.23;11.70;;;7.40;99.90;;;;;;5033119;28;20022;-65
2024/03/20 05:33:31;;;;;;;16.70;12.45;;;7.40;99.90;;;;;;5034606;28;20247;-66
2024/03/20 05:35:56;;;;;;;25.15;13.15;;;7.40;99.90;;;;;;5033642;28;20124;-65
2024/03/20 05:38:22;;;;;;;16.50;13.27;;;7.50;99.90;;;;;;5034534;28;20021;-66
2024/03/20 05:40:48;;;;;;;19.13;13.25;;;7.50;99.90;;;;;;5034195;28;20049;-66
2024/03/20 05:43:15;;;;;;;24.25;14.38;;;7.60;99.90;;;;;;5033117;28;20112;-66
2024/03/20 05:45:41;;;;;;;19.02;13.52;;;7.60;99.90;;;;;;5034416;28;20021;-66
2024/03/20 05:48:06;;;;;;;19.00;13.10;;;7.70;99.90;;;;;;5032865;28;20026;-66
2024/03/20 05:50:32;;;;;;;22.30;12.98;;;7.70;99.90;;;;;;5033135;28;20508;-65
2024/03/20 05:52:58;;;;;;;20.77;14.60;;;7.80;99.90;;;;;;5034320;28;20104;-66
2024/03/20 05:55:24;;;;;;;22.15;13.85;;;7.90;99.90;;;;;;5034130;28;20061;-66
2024/03/20 05:57:50;;;;;;;20.75;13.55;;;7.90;99.90;;;;;;5034170;28;20377;-66
2024/03/20 06:00:25;;;;;;;22.25;14.57;;;8.00;99.90;;;;;;5034145;28;20025;-66
2024/03/20 06:02:53;;;;;;;24.30;14.40;;;8.00;99.90;;;;;;5032824;28;20022;-65
2024/03/20 06:05:19;;;;;;;25.02;13.82;;;8.10;99.90;;;;;;5034336;28;20139;-65
2024/03/20 06:07:45;;;;;;;25.25;13.70;;;8.20;99.90;;;;;;5034215;28;20033;-67
2024/03/20 06:10:12;;;;;;;21.90;13.98;;;8.30;99.90;;;;;;5034108;28;20029;-66
2024/03/20 06:12:38;;;;;;;26.48;13.85;;;8.40;99.90;;;;;;5032624;28;20456;-65
2024/03/20 06:15:05;;;;;;;20.00;13.73;;;8.50;99.90;;;;;;5034326;28;20037;-66
2024/03/20 06:17:32;;;;;;;19.13;13.38;;;8.50;99.90;;;;;;5032678;28;20028;-66
2024/03/20 06:19:58;;;;;;;24.90;14.82;;;8.60;99.90;;;;;;5032557;28;20048;-66
2024/03/20 06:22:24;;;;;;;24.80;14.57;;;8.70;99.90;;;;;;5032849;28;20052;-66
2024/03/20 06:24:50;;;;;;;20.48;14.40;;;8.80;99.90;;;;;;5033892;28;20029;-66
2024/03/20 06:27:16;;;;;;;23.33;13.45;;;9.00;99.90;;;;;;5032458;28;20026;-65
2024/03/20 06:29:42;;;;;;;20.25;13.63;;;9.00;99.90;;;;;;5033865;28;20042;-66
2024/03/20 06:32:07;;;;;;;21.73;13.75;;;9.20;99.90;;;;;;5033711;28;20021;-66
2024/03/20 06:34:33;;;;;;;21.73;13.57;;;9.30;99.90;;;;;;5032245;28;20031;-66
2024/03/20 06:36:58;;;;;;;21.38;13.38;;;9.50;99.90;;;;;;5033572;28;20060;-67
2024/03/20 06:39:24;;;;;;;21.50;13.70;;;10.20;99.90;;;;;;5033451;28;20025;-66
2024/03/20 06:41:49;;;;;;;21.50;13.27;;;10.10;99.90;;;;;;5033159;28;20017;-66
2024/03/20 06:44:17;;;;;;;20.25;13.80;;;10.50;99.90;;;;;;5033502;28;20481;-64
2024/03/20 06:46:44;;;;;;;20.05;12.35;;;10.70;99.90;;;;;;5033297;28;20032;-66
2024/03/20 06:49:10;;;;;;;18.15;12.48;;;11.20;99.90;;;;;;5031842;28;20029;-65
2024/03/20 06:51:37;;;;;;;15.82;12.63;;;11.60;99.90;;;;;;5031861;28;20523;-67
2024/03/20 06:54:09;;;;;;;20.15;12.07;;;11.60;99.90;;;;;;5031763;28;20401;-66
2024/03/20 06:56:35;;;;;;;21.30;12.43;;;12.00;99.90;;;;;;5033034;28;20041;-67
2024/03/20 06:59:01;;;;;;;19.27;12.35;;;12.20;99.90;;;;;;5033044;28;20014;-66
2024/03/20 07:01:27;;;;;;;17.83;12.10;;;12.30;99.90;;;;;;5033347;28;20026;-66
2024/03/20 07:03:52;;;;;;;21.67;13.00;;;12.20;99.90;;;;;;5031451;28;20532;-66
2024/03/20 07:06:18;;;;;;;17.63;12.20;;;12.40;99.90;;;;;;5031174;28;20024;-65
2024/03/20 07:08:43;;;;;;;19.73;11.75;;;12.60;99.90;;;;;;5033246;28;20029;-66
2024/03/20 07:11:09;;;;;;;25.23;12.18;;;12.70;99.90;;;;;;5032476;28;20036;-66
2024/03/20 07:13:34;;;;;;;15.10;11.25;;;13.10;99.90;;;;;;5053957;23;20084;-56
2024/03/20 07:16:00;;;;;;;16.58;11.73;;;;;;;;;;5032475;28;20029;-57
2024/03/20 07:18:26;;;;;;;17.13;11.38;;;14.40;99.90;;;;;;5032569;28;20046;-59
2024/03/20 07:20:51;;;;;;;15.05;10.68;;;14.70;99.90;;;;;;5032487;28;20464;-57
2024/03/20 07:23:17;;;;;;;20.13;11.93;;;14.60;99.90;;;;;;5032433;28;20030;-57
2024/03/20 07:25:42;;;;;;;15.00;11.20;;;14.80;99.90;;;;;;5032554;28;20030;-58
2024/03/20 07:28:09;;;;;;;19.35;11.75;;;;;;;;;;5032535;28;20033;-56
2024/03/20 07:30:35;;;;;;;18.52;10.63;;;15.80;99.90;;;;;;5032348;28;20018;-58
2024/03/20 07:33:01;;;;;;;14.30;9.95;;;16.30;99.90;;;;;;5031464;28;20086;-61
2024/03/20 07:35:29;;;;;;;14.95;10.88;;;16.80;99.90;;;;;;5031079;28;20485;-61
2024/03/20 07:37:54;;;;;;;13.98;9.75;;;17.10;99.90;;;;;;5032274;28;20025;-59
2024/03/20 07:40:21;;;;;;;15.82;11.13;;;17.20;99.90;;;;;;5032218;28;20029;-59
2024/03/20 07:42:47;;;;;;;17.63;10.55;;;16.80;99.90;;;;;;5032123;28;20492;-57
2024/03/20 07:45:12;;;;;;;14.40;11.13;;;16.00;99.90;;;;;;5030848;28;20026;-60
2024/03/20 07:47:38;;;;;;;16.83;11.02;;;15.60;99.90;;;;;;5030816;28;20116;-59
2024/03/20 07:50:05;;;;;;;15.80;10.85;;;15.50;99.90;;;;;;5031850;28;20030;-60
2024/03/20 07:52:30;;;;;;;17.85;11.65;;;15.90;99.90;;;;;;5032074;28;20413;-58
2024/03/20 07:54:56;;;;;;;15.10;11.15;;;16.30;99.90;;;;;;5030679;28;20029;-60
2024/03/20 07:57:22;;;;;;;17.67;11.80;;;16.70;99.90;;;;;;5031827;28;20021;-57
2024/03/20 07:59:47;;;;;;;17.63;11.32;;;16.60;99.90;;;;;;5030333;28;20463;-61
2024/03/20 08:02:13;;;;;;;21.48;12.55;;;16.10;99.90;;;;;;5031794;28;20036;-60
2024/03/20 08:04:38;;;;;;;19.08;12.43;;;15.30;99.90;;;;;;5030817;28;20108;-60
2024/03/20 08:07:06;;;;;;;21.23;12.63;;;15.20;99.90;;;;;;5031447;28;20029;-60
2024/03/20 08:09:33;;;;;;;22.63;13.27;;;14.70;99.90;;;;;;5031599;28;20017;-61
2024/03/20 08:11:58;;;;;;;22.88;12.43;;;14.30;99.90;;;;;;5031449;28;20082;-60
2024/03/20 08:14:24;;;;;;;21.30;15.02;;;13.80;99.90;;;;;;5030437;28;20025;-62
2024/03/20 08:16:49;;;;;;;18.00;13.23;;;13.40;99.90;;;;;;5031619;28;20452;-62
2024/03/20 08:19:15;;;;;;;22.00;13.88;;;13.50;99.90;;;;;;5031604;28;20501;-60
2024/03/20 08:21:40;;;;;;;16.88;12.23;;;13.40;99.90;;;;;;5030017;28;20032;-62
2024/03/20 08:24:06;;;;;;;18.58;13.30;;;13.20;99.90;;;;;;5031514;28;20029;-61
2024/03/20 08:26:31;;;;;;;18.52;13.27;;;13.00;99.90;;;;;;5031417;28;20113;-56
2024/03/20 08:28:57;;;;;;;23.92;13.40;;;13.10;99.90;;;;;;5032824;28;20048;-59
2024/03/20 08:31:23;;;;;;;18.33;12.95;;;13.20;99.90;;;;;;5030048;28;20025;-58
2024/03/20 08:33:49;;;;;;;24.05;13.55;;;13.10;99.90;;;;;;5030491;28;20033;-60
2024/03/20 08:36:15;;;;;;;20.70;13.77;;;13.10;99.90;;;;;;5029333;28;20504;-59
2024/03/20 08:38:40;;;;;;;18.15;13.30;;;13.00;99.90;;;;;;5027219;28;20018;-58
2024/03/20 08:41:06;;;;;;;23.30;12.10;;;13.10;99.90;;;;;;5030935;28;20116;-57
2024/03/20 08:43:33;;;;;;;20.92;13.82;;;13.20;99.90;;;;;;5036124;28;20022;-57
2024/03/20 08:45:59;;;;;;;14.95;11.90;;;13.30;99.90;;;;;;5037772;28;20022;-61
2024/03/20 08:48:25;;;;;;;22.63;13.18;;;13.40;99.90;;;;;;5037929;28;20576;-56
2024/03/20 08:50:51;;;;;;;14.10;11.88;;;13.50;99.90;;;;;;5037376;28;20037;-55
2024/03/20 08:53:18;;;;;;;15.98;11.63;;;13.70;99.90;;;;;;5036237;28;20397;-53
2024/03/20 08:55:44;;;;;;;18.25;11.75;;;13.60;99.90;;;;;;5037794;28;20064;-50
2024/03/20 08:58:09;;;;;;;15.38;11.05;;;13.70;99.90;;;;;;5037782;28;20033;-56
2024/03/20 09:00:35;;;;;;;16.90;10.20;;;13.80;99.90;;;;;;5037760;28;20469;-55
2024/03/20 09:03:02;;;;;;;14.30;9.90;;;13.90;99.90;;;;;;5036686;28;20121;-52
2024/03/20 09:05:28;;;;;;;14.65;9.73;;;14.20;99.90;;;;;;5037023;28;20048;-56
2024/03/20 09:07:54;;;;;;;11.60;8.25;;;14.60;99.90;;;;;;5037683;28;20033;-56
2024/03/20 09:10:20;;;;;;;13.10;9.18;;;15.30;99.90;;;;;;5036611;28;20033;-58
2024/03/20 09:12:45;;;;;;;10.85;8.40;;;16.20;99.90;;;;;;5037591;28;20037;-55
2024/03/20 09:15:11;;;;;;;7.80;7.00;;;17.00;99.90;;;;;;5037735;28;20030;-54
2024/03/20 09:17:36;;;;;;;14.45;8.13;;;18.10;99.90;;;;;;5036257;28;20022;-56
2024/03/20 09:20:04;;;;;;;11.73;7.63;;;18.20;99.90;;;;;;5035402;28;20120;-55
2024/03/20 09:22:30;;;;;;;9.10;7.85;;;18.70;99.90;;;;;;5036256;28;20033;-61
2024/03/20 09:24:55;;;;;;;9.02;8.07;;;19.20;99.90;;;;;;5036007;28;20033;-60
2024/03/20 09:27:21;;;;;;;10.77;8.13;;;19.20;99.90;;;;;;5035584;28;20633;-57
2024/03/20 09:29:46;;;;;;;17.02;8.45;;;19.60;99.90;;;;;;5037437;28;20040;-60
2024/03/20 09:32:12;;;;;;;10.80;7.72;;;19.80;99.90;;;;;;5052592;28;20404;-58
2024/03/20 09:34:37;;;;;;;14.13;8.13;;;19.80;99.90;;;;;;5037519;28;20057;-58
2024/03/20 09:37:05;;;;;;;13.27;7.30;;;19.90;99.90;;;;;;5037221;28;20050;-56
2024/03/20 09:39:32;;;;;;;9.60;8.02;;;19.80;99.90;;;;;;5037505;28;20018;-57
2024/03/20 09:41:57;;;;;;;13.77;8.45;;;19.80;99.90;;;;;;5036797;28;21093;-57
2024/03/20 09:44:23;;;;;;;9.60;7.65;;;19.80;99.90;;;;;;5037851;28;20044;-58
2024/03/20 09:46:53;;;;;;;13.52;7.40;;;19.80;99.90;;;;;;5036870;28;20485;-56
2024/03/20 09:49:21;;;;;;;12.68;7.20;;;19.60;99.90;;;;;;5037175;28;20113;-55
2024/03/20 09:51:48;;;;;;;10.18;8.23;;;19.50;99.90;;;;;;5035808;28;20028;-60
2024/03/20 09:54:14;;;;;;;10.02;7.57;;;19.60;99.90;;;;;;5034861;28;20434;-57
2024/03/20 09:56:43;;;;;;;8.20;6.80;;;19.50;99.90;;;;;;5033690;28;20033;-54
2024/03/20 09:59:08;;;;;;;14.75;8.18;;;19.40;99.90;;;;;;5034259;28;20035;-57
2024/03/20 10:01:34;;;;;;;9.63;8.07;;;19.40;99.90;;;;;;5033840;28;20022;-57
2024/03/20 10:04:09;;;;;;;11.60;7.88;;;19.20;99.90;;;;;;5033516;28;20434;-57
2024/03/20 10:06:35;;;;;;;11.32;7.82;;;19.00;99.90;;;;;;5033685;28;20021;-59
2024/03/20 10:09:03;;;;;;;11.93;7.88;;;18.90;99.90;;;;;;5033318;28;20402;-56
2024/03/20 10:11:30;;;;;;;10.27;8.02;;;18.90;99.90;;;;;;5039265;28;20048;-60
2024/03/20 10:13:57;;;;;;;11.90;8.35;;;18.80;99.90;;;;;;5052377;28;20033;-60
2024/03/20 10:16:22;;;;;;;10.00;8.10;;;18.60;99.90;;;;;;5035391;28;20033;-59
2024/03/20 10:18:49;;;;;;;17.95;9.07;;;18.50;99.90;;;;;;5033779;28;20026;-60
2024/03/20 10:21:14;;;;;;;11.70;8.50;;;18.40;99.90;;;;;;5032880;28;20374;-60
2024/03/20 10:23:41;;;;;;;8.85;7.68;;;18.30;99.90;;;;;;5032072;28;20029;-59
2024/03/20 10:26:14;;;;;;;15.20;8.10;;;18.00;99.90;;;;;;5032666;28;20036;-60
2024/03/20 10:28:41;;;;;;;10.48;7.80;;;18.00;99.90;;;;;;5033546;28;20026;-60
2024/03/20 10:31:13;;;;;;;11.43;8.82;;;18.20;99.90;;;;;;5033335;28;20048;-60
2024/03/20 10:33:40;;;;;;;14.20;7.35;;;18.20;99.90;;;;;;5033347;28;20032;-60
2024/03/20 10:36:06;;;;;;;12.43;8.15;;;18.30;99.90;;;;;;5032134;28;20489;-60
2024/03/20 10:38:32;;;;;;;11.20;8.63;;;18.20;99.90;;;;;;5033388;28;20036;-59
2024/03/20 10:40:59;;;;;;;16.50;8.77;;;18.40;99.90;;;;;;5033084;28;20040;-60
2024/03/20 10:43:26;;;;;;;17.73;7.82;;;18.50;99.90;;;;;;5031908;28;20025;-59
2024/03/20 10:45:55;;;;;;;11.48;7.65;;;18.50;99.90;;;;;;5033164;28;20044;-61
2024/03/20 10:48:23;;;;;;;10.95;7.70;;;18.60;99.90;;;;;;5032853;28;20026;-61
2024/03/20 10:50:50;;;;;;;12.98;7.03;;;18.60;99.90;;;;;;5033025;28;20036;-59
2024/03/20 10:53:17;;;;;;;11.85;7.20;;;18.80;99.90;;;;;;5032785;28;20055;-60
2024/03/20 10:55:43;;;;;;;7.28;6.55;;;18.90;99.90;;;;;;5032745;28;20048;-60
2024/03/20 10:58:15;;;;;;;11.88;8.60;;;19.00;99.90;;;;;;5031385;28;20018;-61
2024/03/20 11:00:44;;;;;;;9.85;7.35;;;18.90;99.90;;;;;;5032839;28;20375;-60
2024/03/20 11:03:51;;;;;;;9.55;6.45;;;19.00;99.90;;;;;;5032402;28;20207;-60
2024/03/20 11:06:30;;;;;;;9.48;7.15;;;18.90;99.90;;;;;;5027819;28;20025;-60
2024/03/20 11:08:58;;;;;;;9.35;6.72;;;18.90;99.90;;;;;;5024366;28;20022;-61
2024/03/20 11:11:27;;;;;;;11.07;7.20;;;19.00;99.90;;;;;;5032636;28;20022;-62
2024/03/20 11:13:53;;;;;;;8.82;7.28;;;19.00;99.90;;;;;;5032484;28;20565;-60
2024/03/20 11:16:22;;;;;;;8.35;6.70;;;19.10;99.90;;;;;;5031448;28;20112;-61
2024/03/20 11:18:55;;;;;;;11.98;5.35;;;18.90;99.90;;;;;;5031238;28;20033;-62
2024/03/20 11:21:21;;;;;;;6.20;4.53;;;18.90;99.90;;;;;;5031430;28;20082;-61
2024/03/20 11:23:53;;;;;;;7.68;3.75;;;18.90;99.90;;;;;;5032548;28;20100;-61
2024/03/20 11:26:19;;;;;;;6.15;4.32;;;18.80;99.90;;;;;;5031067;28;20071;-61
2024/03/20 11:28:47;;;;;;;8.18;4.40;;;18.80;99.90;;;;;;5030837;28;20025;-56
2024/03/20 11:31:15;;;;;;;4.63;3.22;;;18.80;99.90;;;;;;5031075;28;20029;-62
2024/03/20 11:33:42;;;;;;;8.27;4.05;;;18.80;99.90;;;;;;5018107;28;20037;-62
2024/03/20 11:36:18;;;;;;;5.93;3.00;;;18.80;99.90;;;;;;5031738;28;20582;-62
2024/03/20 11:38:45;;;;;;;7.53;2.80;;;18.70;99.60;;;;;;5032015;28;20067;-61
2024/03/20 11:41:11;;;;;;;6.63;3.08;;;18.70;99.30;;;;;;5030587;28;20116;-60
2024/03/20 11:43:43;;;;;;;4.43;2.50;;;18.60;98.10;;;;;;5032145;28;20043;-59
2024/03/20 11:46:16;;;;;;;2.25;2.05;;;18.70;98.20;;;;;;5030647;28;20025;-63
2024/03/20 11:48:49;;;;;;;4.63;2.40;;;18.70;97.40;;;;;;5032131;28;20025;-61
2024/03/20 11:51:22;;;;;;;2.80;2.30;;;18.70;97.70;;;;;;5031381;28;20485;-62
2024/03/20 11:53:49;;;;;;;7.47;2.92;;;18.70;97.90;;;;;;5031944;28;20037;-61
2024/03/20 11:56:14;;;;;;;4.95;2.25;;;18.60;98.20;;;;;;5031810;28;20393;-58
2024/03/20 11:58:40;;;;;;;4.25;2.35;;;18.60;99.20;;;;;;5031869;28;20029;-62
2024/03/20 12:01:08;;;;;;;5.28;2.47;;;18.50;99.30;;;;;;5031623;28;20492;-59
2024/03/20 12:03:38;;;;;;;7.60;3.17;;;18.60;99.20;;;;;;5031938;28;20021;-61
2024/03/20 12:06:13;;;;;;;11.65;2.70;;;18.70;99.20;;;;;;5033126;28;20029;-60
2024/03/20 12:08:39;;;;;;;7.25;3.58;;;18.70;99.60;;;;;;5050479;28;20031;-60
2024/03/20 12:11:26;;;;;;;3.55;3.22;;;18.70;99.90;;;;;;5050219;28;20036;-58
2024/03/20 12:13:52;;;;;;;5.05;4.55;;;18.80;99.90;;;;;;5051372;28;20535;-62
2024/03/20 12:16:20;;;;;;;49.17;29.63;;;18.70;99.90;;;;;;5050811;28;20025;-60
2024/03/20 12:18:47;;;;;;;7.03;4.88;;;18.70;99.90;;;;;;5050282;28;20106;-61
2024/03/20 12:21:13;;;;;;;4.30;3.28;;;18.60;99.90;;;;;;5051397;28;20021;-62
2024/03/20 12:23:40;;;;;;;4.25;2.90;;;18.50;99.90;;;;;;5051609;28;20400;-62
2024/03/20 12:26:06;;;;;;;5.72;3.40;;;18.50;99.90;;;;;;5051602;28;20035;-61
2024/03/20 12:28:32;;;;;;;10.60;3.97;;;18.50;99.90;;;;;;5051337;28;20110;-62
2024/03/20 12:30:58;;;;;;;4.18;3.75;;;18.50;99.90;;;;;;5049949;28;20029;-62
2024/03/20 12:33:25;;;;;;;8.93;4.63;;;18.40;99.90;;;;;;5051338;28;20027;-62